sensor_id;sensor_type;location;lat;lon;timestamp;P1;durP1;ratioP1;P2;durP2;ratioP2
36827;SDS011;22766;48.042;11.192;2022-12-07T00:03:37;8.10;;;4.10;;
36827;SDS011;22766;48.042;11.192;2022-12-07T00:06:05;9.07;;;4.50;;
36827;SDS011;22766;48.042;11.192;2022-12-07T00:08:33;9.43;;;4.10;;
36827;SDS011;22766;48.042;11.192;2022-12-07T00:11:08;6.15;;;3.55;;
36827;SDS011;22766;48.042;11.192;2022-12-07T00:13:39;8.88;;;4.53;;
36827;SDS011;22766;48.042;11.192;2022-12-07T00:18:35;7.15;;;4.07;;
36827;SDS011;22766;48.042;11.192;2022-12-07T00:21:02;7.93;;;3.75;;
36827;SDS011;22766;48.042;11.192;2022-12-07T00:23:31;7.50;;;3.47;;
36827;SDS011;22766;48.042;11.192;2022-12-07T00:26:08;6.55;;;3.05;;
36827;SDS011;22766;48.042;11.192;2022-12-07T00:28:37;7.03;;;3.53;;
36827;SDS011;22766;48.042;11.192;2022-12-07T00:31:09;6.28;;;3.17;;
36827;SDS011;22766;48.042;11.192;2022-12-07T00:33:37;6.82;;;3.70;;
36827;SDS011;22766;48.042;11.192;2022-12-07T00:36:08;8.35;;;3.85;;
36827;SDS011;22766;48.042;11.192;2022-12-07T00:38:37;7.40;;;3.60;;
36827;SDS011;22766;48.042;11.192;2022-12-07T00:41:05;5.85;;;3.50;;
36827;SDS011;22766;48.042;11.192;2022-12-07T00:43:35;6.22;;;3.63;;
36827;SDS011;22766;48.042;11.192;2022-12-07T00:46:02;5.57;;;3.30;;
36827;SDS011;22766;48.042;11.192;2022-12-07T00:48:29;5.78;;;3.45;;
36827;SDS011;22766;48.042;11.192;2022-12-07T00:50:56;6.90;;;3.20;;
36827;SDS011;22766;48.042;11.192;2022-12-07T00:53:23;5.85;;;3.30;;
36827;SDS011;22766;48.042;11.192;2022-12-07T00:55:50;6.57;;;3.90;;
36827;SDS011;22766;48.042;11.192;2022-12-07T00:58:18;6.75;;;2.97;;
36827;SDS011;22766;48.042;11.192;2022-12-07T01:00:46;5.45;;;3.15;;
36827;SDS011;22766;48.042;11.192;2022-12-07T01:03:13;9.18;;;3.78;;
36827;SDS011;22766;48.042;11.192;2022-12-07T01:05:48;6.45;;;3.83;;
36827;SDS011;22766;48.042;11.192;2022-12-07T01:08:16;5.63;;;3.42;;
36827;SDS011;22766;48.042;11.192;2022-12-07T01:10:42;5.25;;;2.72;;
36827;SDS011;22766;48.042;11.192;2022-12-07T01:13:09;6.07;;;3.20;;
36827;SDS011;22766;48.042;11.192;2022-12-07T01:15:39;5.82;;;3.25;;
36827;SDS011;22766;48.042;11.192;2022-12-07T01:20:34;5.68;;;3.33;;
36827;SDS011;22766;48.042;11.192;2022-12-07T01:23:01;6.63;;;3.33;;
36827;SDS011;22766;48.042;11.192;2022-12-07T01:25:28;6.45;;;3.15;;
36827;SDS011;22766;48.042;11.192;2022-12-07T01:27:55;5.78;;;2.95;;
36827;SDS011;22766;48.042;11.192;2022-12-07T01:30:21;8.80;;;3.75;;
36827;SDS011;22766;48.042;11.192;2022-12-07T01:32:48;7.18;;;3.55;;
36827;SDS011;22766;48.042;11.192;2022-12-07T01:35:15;7.35;;;3.40;;
36827;SDS011;22766;48.042;11.192;2022-12-07T01:37:41;5.75;;;3.50;;
36827;SDS011;22766;48.042;11.192;2022-12-07T01:40:09;6.38;;;3.10;;
36827;SDS011;22766;48.042;11.192;2022-12-07T01:42:36;5.88;;;3.50;;
36827;SDS011;22766;48.042;11.192;2022-12-07T01:48:12;6.78;;;3.13;;
36827;SDS011;22766;48.042;11.192;2022-12-07T01:53:11;5.38;;;3.00;;
36827;SDS011;22766;48.042;11.192;2022-12-07T01:55:40;6.35;;;3.08;;
36827;SDS011;22766;48.042;11.192;2022-12-07T01:58:10;3.70;;;2.03;;
36827;SDS011;22766;48.042;11.192;2022-12-07T02:00:38;6.57;;;3.50;;
36827;SDS011;22766;48.042;11.192;2022-12-07T02:03:07;4.22;;;2.72;;
36827;SDS011;22766;48.042;11.192;2022-12-07T02:05:37;5.00;;;2.95;;
36827;SDS011;22766;48.042;11.192;2022-12-07T02:08:06;6.75;;;3.08;;
36827;SDS011;22766;48.042;11.192;2022-12-07T02:10:34;7.30;;;3.08;;
36827;SDS011;22766;48.042;11.192;2022-12-07T02:13:01;6.43;;;3.35;;
36827;SDS011;22766;48.042;11.192;2022-12-07T02:15:33;6.78;;;3.05;;
36827;SDS011;22766;48.042;11.192;2022-12-07T02:18:22;5.30;;;2.75;;
36827;SDS011;22766;48.042;11.192;2022-12-07T02:26:30;6.43;;;3.30;;
36827;SDS011;22766;48.042;11.192;2022-12-07T02:29:17;6.22;;;3.40;;
36827;SDS011;22766;48.042;11.192;2022-12-07T02:34:42;7.72;;;3.15;;
36827;SDS011;22766;48.042;11.192;2022-12-07T02:37:10;7.50;;;3.42;;
36827;SDS011;22766;48.042;11.192;2022-12-07T02:39:47;6.10;;;3.53;;
36827;SDS011;22766;48.042;11.192;2022-12-07T02:42:22;7.00;;;3.78;;
36827;SDS011;22766;48.042;11.192;2022-12-07T02:44:55;6.82;;;3.15;;
36827;SDS011;22766;48.042;11.192;2022-12-07T02:47:22;5.65;;;2.97;;
36827;SDS011;22766;48.042;11.192;2022-12-07T02:49:51;6.13;;;3.17;;
36827;SDS011;22766;48.042;11.192;2022-12-07T02:52:18;7.07;;;3.10;;
36827;SDS011;22766;48.042;11.192;2022-12-07T02:54:45;6.45;;;3.60;;
36827;SDS011;22766;48.042;11.192;2022-12-07T02:57:22;7.80;;;3.83;;
36827;SDS011;22766;48.042;11.192;2022-12-07T03:16:33;9.02;;;3.35;;
36827;SDS011;22766;48.042;11.192;2022-12-07T03:21:41;7.63;;;3.65;;
36827;SDS011;22766;48.042;11.192;2022-12-07T03:24:12;7.47;;;4.03;;
36827;SDS011;22766;48.042;11.192;2022-12-07T03:29:24;6.53;;;3.35;;
36827;SDS011;22766;48.042;11.192;2022-12-07T03:34:34;6.85;;;3.35;;
36827;SDS011;22766;48.042;11.192;2022-12-07T03:37:23;6.70;;;2.90;;
36827;SDS011;22766;48.042;11.192;2022-12-07T03:40:29;5.30;;;3.10;;
36827;SDS011;22766;48.042;11.192;2022-12-07T03:42:49;8.63;;;3.50;;
36827;SDS011;22766;48.042;11.192;2022-12-07T03:45:17;7.97;;;3.25;;
36827;SDS011;22766;48.042;11.192;2022-12-07T03:53:14;6.50;;;3.17;;
36827;SDS011;22766;48.042;11.192;2022-12-07T03:55:46;6.28;;;3.50;;
36827;SDS011;22766;48.042;11.192;2022-12-07T03:58:16;8.18;;;3.67;;
36827;SDS011;22766;48.042;11.192;2022-12-07T04:00:46;7.18;;;3.30;;
36827;SDS011;22766;48.042;11.192;2022-12-07T04:03:13;7.30;;;3.78;;
36827;SDS011;22766;48.042;11.192;2022-12-07T04:05:40;7.28;;;3.97;;
36827;SDS011;22766;48.042;11.192;2022-12-07T04:08:07;6.88;;;3.47;;
36827;SDS011;22766;48.042;11.192;2022-12-07T04:10:33;6.05;;;3.35;;
36827;SDS011;22766;48.042;11.192;2022-12-07T04:13:00;6.88;;;3.63;;
36827;SDS011;22766;48.042;11.192;2022-12-07T04:15:27;6.63;;;3.60;;
36827;SDS011;22766;48.042;11.192;2022-12-07T04:17:54;7.63;;;3.33;;
36827;SDS011;22766;48.042;11.192;2022-12-07T04:20:21;7.68;;;3.70;;
36827;SDS011;22766;48.042;11.192;2022-12-07T04:22:47;5.10;;;3.13;;
36827;SDS011;22766;48.042;11.192;2022-12-07T04:25:14;7.80;;;3.47;;
36827;SDS011;22766;48.042;11.192;2022-12-07T04:27:40;7.30;;;3.53;;
36827;SDS011;22766;48.042;11.192;2022-12-07T04:30:07;7.63;;;3.13;;
36827;SDS011;22766;48.042;11.192;2022-12-07T04:32:34;8.13;;;3.88;;
36827;SDS011;22766;48.042;11.192;2022-12-07T04:35:01;11.45;;;3.97;;
36827;SDS011;22766;48.042;11.192;2022-12-07T04:37:28;7.38;;;3.45;;
36827;SDS011;22766;48.042;11.192;2022-12-07T04:39:54;6.40;;;3.47;;
36827;SDS011;22766;48.042;11.192;2022-12-07T04:42:21;6.45;;;3.58;;
36827;SDS011;22766;48.042;11.192;2022-12-07T04:44:47;7.55;;;4.10;;
36827;SDS011;22766;48.042;11.192;2022-12-07T04:47:14;5.80;;;3.65;;
36827;SDS011;22766;48.042;11.192;2022-12-07T04:49:41;7.50;;;3.97;;
36827;SDS011;22766;48.042;11.192;2022-12-07T04:52:07;6.55;;;3.75;;
36827;SDS011;22766;48.042;11.192;2022-12-07T04:54:34;8.27;;;3.38;;
36827;SDS011;22766;48.042;11.192;2022-12-07T04:57:01;5.90;;;3.40;;
36827;SDS011;22766;48.042;11.192;2022-12-07T04:59:27;5.82;;;3.22;;
36827;SDS011;22766;48.042;11.192;2022-12-07T05:01:57;9.73;;;3.83;;
36827;SDS011;22766;48.042;11.192;2022-12-07T05:04:23;8.57;;;3.70;;
36827;SDS011;22766;48.042;11.192;2022-12-07T05:06:50;10.82;;;4.72;;
36827;SDS011;22766;48.042;11.192;2022-12-07T05:09:16;8.90;;;3.95;;
36827;SDS011;22766;48.042;11.192;2022-12-07T05:11:43;7.82;;;3.45;;
36827;SDS011;22766;48.042;11.192;2022-12-07T05:14:14;10.68;;;4.00;;
36827;SDS011;22766;48.042;11.192;2022-12-07T05:16:41;7.63;;;4.17;;
36827;SDS011;22766;48.042;11.192;2022-12-07T05:19:10;7.82;;;4.07;;
36827;SDS011;22766;48.042;11.192;2022-12-07T05:21:37;6.97;;;3.40;;
36827;SDS011;22766;48.042;11.192;2022-12-07T05:24:04;6.25;;;3.75;;
36827;SDS011;22766;48.042;11.192;2022-12-07T05:26:32;7.13;;;3.60;;
36827;SDS011;22766;48.042;11.192;2022-12-07T05:29:00;5.57;;;3.20;;
36827;SDS011;22766;48.042;11.192;2022-12-07T05:31:27;5.50;;;3.28;;
36827;SDS011;22766;48.042;11.192;2022-12-07T05:33:53;6.57;;;3.90;;
36827;SDS011;22766;48.042;11.192;2022-12-07T05:36:20;7.55;;;3.97;;
36827;SDS011;22766;48.042;11.192;2022-12-07T05:38:47;7.30;;;3.40;;
36827;SDS011;22766;48.042;11.192;2022-12-07T05:41:15;5.22;;;3.00;;
36827;SDS011;22766;48.042;11.192;2022-12-07T05:44:01;5.60;;;3.25;;
36827;SDS011;22766;48.042;11.192;2022-12-07T05:46:28;5.63;;;3.25;;
36827;SDS011;22766;48.042;11.192;2022-12-07T05:48:55;6.00;;;3.03;;
36827;SDS011;22766;48.042;11.192;2022-12-07T05:51:21;7.47;;;3.45;;
36827;SDS011;22766;48.042;11.192;2022-12-07T05:53:48;7.72;;;3.70;;
36827;SDS011;22766;48.042;11.192;2022-12-07T05:56:15;8.27;;;3.65;;
36827;SDS011;22766;48.042;11.192;2022-12-07T05:58:42;6.18;;;3.35;;
36827;SDS011;22766;48.042;11.192;2022-12-07T06:01:27;8.57;;;3.97;;
36827;SDS011;22766;48.042;11.192;2022-12-07T06:03:54;5.97;;;3.67;;
36827;SDS011;22766;48.042;11.192;2022-12-07T06:06:21;8.73;;;4.00;;
36827;SDS011;22766;48.042;11.192;2022-12-07T06:08:47;8.13;;;4.10;;
36827;SDS011;22766;48.042;11.192;2022-12-07T06:11:14;7.15;;;3.88;;
36827;SDS011;22766;48.042;11.192;2022-12-07T06:14:00;10.32;;;4.38;;
36827;SDS011;22766;48.042;11.192;2022-12-07T06:16:26;10.38;;;4.38;;
36827;SDS011;22766;48.042;11.192;2022-12-07T06:18:53;8.82;;;4.00;;
36827;SDS011;22766;48.042;11.192;2022-12-07T06:21:20;8.82;;;4.45;;
36827;SDS011;22766;48.042;11.192;2022-12-07T06:23:46;10.07;;;4.22;;
36827;SDS011;22766;48.042;11.192;2022-12-07T06:26:14;10.10;;;4.97;;
36827;SDS011;22766;48.042;11.192;2022-12-07T06:28:40;8.00;;;4.00;;
36827;SDS011;22766;48.042;11.192;2022-12-07T06:31:07;10.18;;;4.68;;
36827;SDS011;22766;48.042;11.192;2022-12-07T06:33:40;11.10;;;4.65;;
36827;SDS011;22766;48.042;11.192;2022-12-07T06:36:07;11.52;;;4.90;;
36827;SDS011;22766;48.042;11.192;2022-12-07T06:38:35;10.20;;;5.60;;
36827;SDS011;22766;48.042;11.192;2022-12-07T06:41:01;11.88;;;5.65;;
36827;SDS011;22766;48.042;11.192;2022-12-07T06:43:28;9.30;;;5.25;;
36827;SDS011;22766;48.042;11.192;2022-12-07T06:45:55;11.95;;;6.03;;
36827;SDS011;22766;48.042;11.192;2022-12-07T06:48:22;9.45;;;5.10;;
36827;SDS011;22766;48.042;11.192;2022-12-07T06:50:49;10.60;;;5.28;;
36827;SDS011;22766;48.042;11.192;2022-12-07T06:53:20;11.88;;;6.38;;
36827;SDS011;22766;48.042;11.192;2022-12-07T06:55:48;9.52;;;5.88;;
36827;SDS011;22766;48.042;11.192;2022-12-07T06:58:14;8.35;;;4.72;;
36827;SDS011;22766;48.042;11.192;2022-12-07T07:00:41;8.93;;;5.05;;
36827;SDS011;22766;48.042;11.192;2022-12-07T07:03:08;8.77;;;4.68;;
36827;SDS011;22766;48.042;11.192;2022-12-07T07:05:34;11.32;;;4.75;;
36827;SDS011;22766;48.042;11.192;2022-12-07T07:08:01;8.65;;;4.38;;
36827;SDS011;22766;48.042;11.192;2022-12-07T07:10:48;10.60;;;4.38;;
36827;SDS011;22766;48.042;11.192;2022-12-07T07:13:15;13.43;;;4.55;;
36827;SDS011;22766;48.042;11.192;2022-12-07T07:15:42;32.30;;;6.85;;
36827;SDS011;22766;48.042;11.192;2022-12-07T07:18:09;16.75;;;6.10;;
36827;SDS011;22766;48.042;11.192;2022-12-07T07:20:35;12.43;;;5.18;;
36827;SDS011;22766;48.042;11.192;2022-12-07T07:23:02;10.32;;;4.93;;
36827;SDS011;22766;48.042;11.192;2022-12-07T07:25:29;11.98;;;4.90;;
36827;SDS011;22766;48.042;11.192;2022-12-07T07:27:56;12.25;;;4.95;;
36827;SDS011;22766;48.042;11.192;2022-12-07T07:30:23;15.98;;;5.90;;
36827;SDS011;22766;48.042;11.192;2022-12-07T07:32:50;10.52;;;5.20;;
36827;SDS011;22766;48.042;11.192;2022-12-07T07:35:16;13.38;;;5.30;;
36827;SDS011;22766;48.042;11.192;2022-12-07T07:37:43;28.02;;;6.32;;
36827;SDS011;22766;48.042;11.192;2022-12-07T07:40:10;21.98;;;6.07;;
36827;SDS011;22766;48.042;11.192;2022-12-07T07:42:37;13.95;;;6.40;;
36827;SDS011;22766;48.042;11.192;2022-12-07T07:45:03;11.80;;;5.80;;
36827;SDS011;22766;48.042;11.192;2022-12-07T07:47:30;11.48;;;5.28;;
36827;SDS011;22766;48.042;11.192;2022-12-07T07:49:57;10.40;;;5.22;;
36827;SDS011;22766;48.042;11.192;2022-12-07T07:52:24;10.77;;;5.50;;
36827;SDS011;22766;48.042;11.192;2022-12-07T07:54:51;11.52;;;6.05;;
36827;SDS011;22766;48.042;11.192;2022-12-07T07:57:17;8.55;;;4.82;;
36827;SDS011;22766;48.042;11.192;2022-12-07T07:59:44;9.02;;;4.80;;
36827;SDS011;22766;48.042;11.192;2022-12-07T08:02:17;12.68;;;5.68;;
36827;SDS011;22766;48.042;11.192;2022-12-07T08:04:45;14.35;;;5.88;;
36827;SDS011;22766;48.042;11.192;2022-12-07T08:07:13;11.05;;;5.90;;
36827;SDS011;22766;48.042;11.192;2022-12-07T08:09:40;13.00;;;5.90;;
36827;SDS011;22766;48.042;11.192;2022-12-07T08:12:08;20.02;;;5.68;;
36827;SDS011;22766;48.042;11.192;2022-12-07T08:14:34;13.75;;;6.82;;
36827;SDS011;22766;48.042;11.192;2022-12-07T08:17:01;18.27;;;6.72;;
36827;SDS011;22766;48.042;11.192;2022-12-07T08:19:28;15.75;;;6.90;;
36827;SDS011;22766;48.042;11.192;2022-12-07T08:21:55;12.68;;;5.95;;
36827;SDS011;22766;48.042;11.192;2022-12-07T08:24:22;12.85;;;6.35;;
36827;SDS011;22766;48.042;11.192;2022-12-07T08:26:49;14.32;;;6.15;;
36827;SDS011;22766;48.042;11.192;2022-12-07T08:29:16;14.52;;;6.70;;
36827;SDS011;22766;48.042;11.192;2022-12-07T08:31:43;15.80;;;6.88;;
36827;SDS011;22766;48.042;11.192;2022-12-07T08:34:10;14.43;;;6.70;;
36827;SDS011;22766;48.042;11.192;2022-12-07T08:36:38;14.27;;;6.35;;
36827;SDS011;22766;48.042;11.192;2022-12-07T08:39:05;14.45;;;6.90;;
36827;SDS011;22766;48.042;11.192;2022-12-07T08:41:52;12.30;;;6.55;;
36827;SDS011;22766;48.042;11.192;2022-12-07T08:44:18;15.45;;;6.00;;
36827;SDS011;22766;48.042;11.192;2022-12-07T08:46:50;14.52;;;6.10;;
36827;SDS011;22766;48.042;11.192;2022-12-07T08:49:23;13.93;;;5.95;;
36827;SDS011;22766;48.042;11.192;2022-12-07T08:51:54;16.20;;;5.38;;
36827;SDS011;22766;48.042;11.192;2022-12-07T08:54:21;12.50;;;5.85;;
36827;SDS011;22766;48.042;11.192;2022-12-07T08:56:48;10.25;;;5.50;;
36827;SDS011;22766;48.042;11.192;2022-12-07T08:59:24;11.93;;;5.43;;
36827;SDS011;22766;48.042;11.192;2022-12-07T09:01:51;12.57;;;5.93;;
36827;SDS011;22766;48.042;11.192;2022-12-07T09:04:18;11.48;;;5.63;;
36827;SDS011;22766;48.042;11.192;2022-12-07T09:06:44;14.27;;;5.80;;
36827;SDS011;22766;48.042;11.192;2022-12-07T09:09:11;18.35;;;6.75;;
36827;SDS011;22766;48.042;11.192;2022-12-07T09:11:40;13.10;;;6.22;;
36827;SDS011;22766;48.042;11.192;2022-12-07T09:14:07;14.65;;;6.63;;
36827;SDS011;22766;48.042;11.192;2022-12-07T09:16:34;13.93;;;6.50;;
36827;SDS011;22766;48.042;11.192;2022-12-07T09:19:01;13.25;;;6.00;;
36827;SDS011;22766;48.042;11.192;2022-12-07T09:21:27;15.27;;;6.35;;
36827;SDS011;22766;48.042;11.192;2022-12-07T09:23:54;12.82;;;6.00;;
36827;SDS011;22766;48.042;11.192;2022-12-07T09:26:20;11.13;;;5.78;;
36827;SDS011;22766;48.042;11.192;2022-12-07T09:28:47;12.48;;;5.60;;
36827;SDS011;22766;48.042;11.192;2022-12-07T09:31:14;10.93;;;5.30;;
36827;SDS011;22766;48.042;11.192;2022-12-07T09:33:54;10.55;;;5.15;;
36827;SDS011;22766;48.042;11.192;2022-12-07T09:36:22;13.65;;;6.18;;
36827;SDS011;22766;48.042;11.192;2022-12-07T09:38:48;11.85;;;5.93;;
36827;SDS011;22766;48.042;11.192;2022-12-07T09:41:15;10.90;;;5.53;;
36827;SDS011;22766;48.042;11.192;2022-12-07T09:43:42;13.35;;;6.75;;
36827;SDS011;22766;48.042;11.192;2022-12-07T09:46:11;11.95;;;5.22;;
36827;SDS011;22766;48.042;11.192;2022-12-07T09:48:41;12.05;;;5.57;;
36827;SDS011;22766;48.042;11.192;2022-12-07T09:51:13;13.23;;;5.88;;
36827;SDS011;22766;48.042;11.192;2022-12-07T09:53:50;11.40;;;5.28;;
36827;SDS011;22766;48.042;11.192;2022-12-07T09:56:18;9.25;;;4.53;;
36827;SDS011;22766;48.042;11.192;2022-12-07T09:58:46;9.55;;;5.18;;
36827;SDS011;22766;48.042;11.192;2022-12-07T10:01:15;9.95;;;5.00;;
36827;SDS011;22766;48.042;11.192;2022-12-07T10:03:50;9.43;;;5.07;;
36827;SDS011;22766;48.042;11.192;2022-12-07T10:06:19;12.13;;;4.82;;
36827;SDS011;22766;48.042;11.192;2022-12-07T10:08:46;13.32;;;5.20;;
36827;SDS011;22766;48.042;11.192;2022-12-07T10:11:14;9.52;;;4.80;;
36827;SDS011;22766;48.042;11.192;2022-12-07T10:13:43;12.85;;;5.53;;
36827;SDS011;22766;48.042;11.192;2022-12-07T10:21:58;11.90;;;5.57;;
36827;SDS011;22766;48.042;11.192;2022-12-07T10:24:38;10.77;;;5.78;;
36827;SDS011;22766;48.042;11.192;2022-12-07T10:29:47;9.02;;;4.78;;
36827;SDS011;22766;48.042;11.192;2022-12-07T10:34:45;9.85;;;5.10;;
36827;SDS011;22766;48.042;11.192;2022-12-07T10:37:18;9.80;;;4.78;;
36827;SDS011;22766;48.042;11.192;2022-12-07T10:39:53;10.75;;;4.45;;
36827;SDS011;22766;48.042;11.192;2022-12-07T10:42:22;10.30;;;4.57;;
36827;SDS011;22766;48.042;11.192;2022-12-07T10:44:50;8.55;;;4.40;;
36827;SDS011;22766;48.042;11.192;2022-12-07T10:50:42;8.98;;;4.25;;
36827;SDS011;22766;48.042;11.192;2022-12-07T11:23:12;9.68;;;4.60;;
36827;SDS011;22766;48.042;11.192;2022-12-07T11:25:52;8.82;;;4.72;;
36827;SDS011;22766;48.042;11.192;2022-12-07T11:35:05;8.75;;;4.28;;
36827;SDS011;22766;48.042;11.192;2022-12-07T11:37:42;7.15;;;4.25;;
36827;SDS011;22766;48.042;11.192;2022-12-07T11:40:20;8.15;;;3.47;;
36827;SDS011;22766;48.042;11.192;2022-12-07T11:45:42;7.43;;;3.90;;
36827;SDS011;22766;48.042;11.192;2022-12-07T11:53:22;7.88;;;4.10;;
36827;SDS011;22766;48.042;11.192;2022-12-07T11:56:03;7.28;;;3.38;;
36827;SDS011;22766;48.042;11.192;2022-12-07T12:06:19;7.93;;;3.72;;
36827;SDS011;22766;48.042;11.192;2022-12-07T12:09:02;9.18;;;4.28;;
36827;SDS011;22766;48.042;11.192;2022-12-07T12:20:50;7.88;;;3.83;;
36827;SDS011;22766;48.042;11.192;2022-12-07T12:23:24;6.55;;;3.47;;
36827;SDS011;22766;48.042;11.192;2022-12-07T12:25:55;9.07;;;3.40;;
36827;SDS011;22766;48.042;11.192;2022-12-07T12:31:04;7.63;;;3.17;;
36827;SDS011;22766;48.042;11.192;2022-12-07T12:33:31;4.80;;;2.25;;
36827;SDS011;22766;48.042;11.192;2022-12-07T12:51:56;11.15;;;5.18;;
36827;SDS011;22766;48.042;11.192;2022-12-07T12:59:38;10.20;;;4.70;;
36827;SDS011;22766;48.042;11.192;2022-12-07T13:20:49;2.55;;;1.52;;
36827;SDS011;22766;48.042;11.192;2022-12-07T13:23:27;3.92;;;2.10;;
36827;SDS011;22766;48.042;11.192;2022-12-07T13:28:47;3.90;;;1.80;;
36827;SDS011;22766;48.042;11.192;2022-12-07T13:31:31;5.43;;;2.42;;
36827;SDS011;22766;48.042;11.192;2022-12-07T13:34:02;4.03;;;2.05;;
36827;SDS011;22766;48.042;11.192;2022-12-07T13:36:37;4.35;;;2.08;;
36827;SDS011;22766;48.042;11.192;2022-12-07T13:41:41;5.57;;;2.17;;
36827;SDS011;22766;48.042;11.192;2022-12-07T13:44:09;2.33;;;1.40;;
36827;SDS011;22766;48.042;11.192;2022-12-07T13:49:46;3.83;;;2.15;;
36827;SDS011;22766;48.042;11.192;2022-12-07T13:57:23;4.32;;;2.05;;
36827;SDS011;22766;48.042;11.192;2022-12-07T13:59:52;4.38;;;2.00;;
36827;SDS011;22766;48.042;11.192;2022-12-07T14:02:20;3.88;;;2.10;;
36827;SDS011;22766;48.042;11.192;2022-12-07T14:05:09;4.28;;;1.73;;
36827;SDS011;22766;48.042;11.192;2022-12-07T14:19:38;3.83;;;1.60;;
36827;SDS011;22766;48.042;11.192;2022-12-07T14:22:36;3.60;;;1.45;;
36827;SDS011;22766;48.042;11.192;2022-12-07T14:25:23;3.53;;;2.10;;
36827;SDS011;22766;48.042;11.192;2022-12-07T14:30:27;5.22;;;2.20;;
36827;SDS011;22766;48.042;11.192;2022-12-07T14:32:57;6.53;;;1.80;;
36827;SDS011;22766;48.042;11.192;2022-12-07T14:35:31;2.95;;;2.00;;
36827;SDS011;22766;48.042;11.192;2022-12-07T14:37:58;3.78;;;2.05;;
36827;SDS011;22766;48.042;11.192;2022-12-07T14:40:26;2.90;;;1.85;;
36827;SDS011;22766;48.042;11.192;2022-12-07T14:42:55;4.50;;;1.90;;
36827;SDS011;22766;48.042;11.192;2022-12-07T14:45:26;4.50;;;1.70;;
36827;SDS011;22766;48.042;11.192;2022-12-07T14:47:53;3.65;;;1.90;;
36827;SDS011;22766;48.042;11.192;2022-12-07T14:50:44;3.83;;;2.00;;
36827;SDS011;22766;48.042;11.192;2022-12-07T14:53:35;7.03;;;2.58;;
36827;SDS011;22766;48.042;11.192;2022-12-07T14:56:05;6.72;;;2.83;;
36827;SDS011;22766;48.042;11.192;2022-12-07T14:58:32;6.82;;;2.90;;
36827;SDS011;22766;48.042;11.192;2022-12-07T15:00:59;6.47;;;3.03;;
36827;SDS011;22766;48.042;11.192;2022-12-07T15:03:26;6.40;;;2.88;;
36827;SDS011;22766;48.042;11.192;2022-12-07T15:05:53;4.78;;;2.42;;
36827;SDS011;22766;48.042;11.192;2022-12-07T15:08:19;6.40;;;2.55;;
36827;SDS011;22766;48.042;11.192;2022-12-07T15:10:46;4.50;;;2.10;;
36827;SDS011;22766;48.042;11.192;2022-12-07T15:13:13;8.38;;;4.07;;
36827;SDS011;22766;48.042;11.192;2022-12-07T15:15:58;5.78;;;3.03;;
36827;SDS011;22766;48.042;11.192;2022-12-07T15:18:26;7.63;;;3.38;;
36827;SDS011;22766;48.042;11.192;2022-12-07T15:20:52;6.47;;;3.42;;
36827;SDS011;22766;48.042;11.192;2022-12-07T15:23:19;6.55;;;3.20;;
36827;SDS011;22766;48.042;11.192;2022-12-07T15:25:47;7.20;;;3.42;;
36827;SDS011;22766;48.042;11.192;2022-12-07T15:28:15;4.75;;;2.35;;
36827;SDS011;22766;48.042;11.192;2022-12-07T15:30:42;7.00;;;2.60;;
36827;SDS011;22766;48.042;11.192;2022-12-07T15:33:10;5.53;;;2.33;;
36827;SDS011;22766;48.042;11.192;2022-12-07T15:35:40;4.50;;;2.25;;
36827;SDS011;22766;48.042;11.192;2022-12-07T15:38:08;4.37;;;2.30;;
36827;SDS011;22766;48.042;11.192;2022-12-07T15:40:35;2.78;;;1.55;;
36827;SDS011;22766;48.042;11.192;2022-12-07T15:43:02;4.95;;;2.05;;
36827;SDS011;22766;48.042;11.192;2022-12-07T15:45:29;5.40;;;2.00;;
36827;SDS011;22766;48.042;11.192;2022-12-07T15:47:56;4.22;;;2.20;;
36827;SDS011;22766;48.042;11.192;2022-12-07T15:50:43;6.07;;;2.40;;
36827;SDS011;22766;48.042;11.192;2022-12-07T15:53:09;6.15;;;2.58;;
36827;SDS011;22766;48.042;11.192;2022-12-07T15:55:38;7.35;;;2.63;;
36827;SDS011;22766;48.042;11.192;2022-12-07T15:58:06;6.10;;;2.80;;
36827;SDS011;22766;48.042;11.192;2022-12-07T16:00:33;4.70;;;2.08;;
36827;SDS011;22766;48.042;11.192;2022-12-07T16:02:59;4.28;;;2.63;;
36827;SDS011;22766;48.042;11.192;2022-12-07T16:05:26;2.83;;;1.75;;
36827;SDS011;22766;48.042;11.192;2022-12-07T16:07:52;6.25;;;2.88;;
36827;SDS011;22766;48.042;11.192;2022-12-07T16:10:19;6.20;;;2.60;;
36827;SDS011;22766;48.042;11.192;2022-12-07T16:12:46;5.10;;;2.33;;
36827;SDS011;22766;48.042;11.192;2022-12-07T16:15:12;7.15;;;2.75;;
36827;SDS011;22766;48.042;11.192;2022-12-07T16:17:39;6.22;;;2.35;;
36827;SDS011;22766;48.042;11.192;2022-12-07T16:20:06;7.20;;;2.70;;
36827;SDS011;22766;48.042;11.192;2022-12-07T16:22:34;4.47;;;2.58;;
36827;SDS011;22766;48.042;11.192;2022-12-07T16:25:01;6.38;;;2.55;;
36827;SDS011;22766;48.042;11.192;2022-12-07T16:27:28;10.48;;;3.70;;
36827;SDS011;22766;48.042;11.192;2022-12-07T16:29:54;13.10;;;4.78;;
36827;SDS011;22766;48.042;11.192;2022-12-07T16:32:22;11.25;;;4.80;;
36827;SDS011;22766;48.042;11.192;2022-12-07T16:34:48;22.85;;;6.93;;
36827;SDS011;22766;48.042;11.192;2022-12-07T16:37:15;20.67;;;8.00;;
36827;SDS011;22766;48.042;11.192;2022-12-07T16:39:41;19.60;;;8.00;;
36827;SDS011;22766;48.042;11.192;2022-12-07T16:42:08;13.27;;;6.13;;
36827;SDS011;22766;48.042;11.192;2022-12-07T16:44:34;11.02;;;4.85;;
36827;SDS011;22766;48.042;11.192;2022-12-07T16:47:01;10.90;;;4.32;;
36827;SDS011;22766;48.042;11.192;2022-12-07T16:49:28;11.38;;;4.60;;
36827;SDS011;22766;48.042;11.192;2022-12-07T16:51:54;8.70;;;4.05;;
36827;SDS011;22766;48.042;11.192;2022-12-07T16:54:41;9.48;;;4.63;;
36827;SDS011;22766;48.042;11.192;2022-12-07T16:57:09;10.93;;;4.75;;
36827;SDS011;22766;48.042;11.192;2022-12-07T16:59:35;10.30;;;4.30;;
36827;SDS011;22766;48.042;11.192;2022-12-07T17:02:02;7.78;;;3.95;;
36827;SDS011;22766;48.042;11.192;2022-12-07T17:04:29;8.20;;;4.18;;
36827;SDS011;22766;48.042;11.192;2022-12-07T17:06:56;10.68;;;5.00;;
36827;SDS011;22766;48.042;11.192;2022-12-07T17:09:23;9.13;;;4.65;;
36827;SDS011;22766;48.042;11.192;2022-12-07T17:11:50;9.32;;;3.80;;
36827;SDS011;22766;48.042;11.192;2022-12-07T17:14:17;9.55;;;4.90;;
36827;SDS011;22766;48.042;11.192;2022-12-07T17:17:02;10.23;;;4.57;;
36827;SDS011;22766;48.042;11.192;2022-12-07T17:19:30;7.90;;;3.95;;
36827;SDS011;22766;48.042;11.192;2022-12-07T17:21:57;10.05;;;4.28;;
36827;SDS011;22766;48.042;11.192;2022-12-07T17:24:23;11.38;;;4.53;;
36827;SDS011;22766;48.042;11.192;2022-12-07T17:26:50;8.73;;;4.40;;
36827;SDS011;22766;48.042;11.192;2022-12-07T17:29:17;7.63;;;4.10;;
36827;SDS011;22766;48.042;11.192;2022-12-07T17:31:44;14.65;;;4.93;;
36827;SDS011;22766;48.042;11.192;2022-12-07T17:34:17;11.63;;;5.50;;
36827;SDS011;22766;48.042;11.192;2022-12-07T17:36:44;9.52;;;5.07;;
36827;SDS011;22766;48.042;11.192;2022-12-07T17:39:15;8.73;;;4.10;;
36827;SDS011;22766;48.042;11.192;2022-12-07T17:41:42;8.85;;;4.85;;
36827;SDS011;22766;48.042;11.192;2022-12-07T17:44:28;8.25;;;4.75;;
36827;SDS011;22766;48.042;11.192;2022-12-07T17:46:55;10.82;;;5.70;;
36827;SDS011;22766;48.042;11.192;2022-12-07T17:49:27;12.68;;;4.97;;
36827;SDS011;22766;48.042;11.192;2022-12-07T17:51:54;9.30;;;4.97;;
36827;SDS011;22766;48.042;11.192;2022-12-07T17:54:38;11.23;;;5.70;;
36827;SDS011;22766;48.042;11.192;2022-12-07T17:57:05;12.23;;;5.40;;
36827;SDS011;22766;48.042;11.192;2022-12-07T17:59:32;12.05;;;5.57;;
36827;SDS011;22766;48.042;11.192;2022-12-07T18:01:59;9.23;;;5.10;;